createdAt,value
2023-10-26T00:00:10.420Z,1.8
2023-10-26T00:03:12.422Z,0.9
2023-10-26T00:06:14.448Z,1.7
2023-10-26T00:09:16.289Z,2.4
2023-10-26T00:12:18.232Z,1
2023-10-26T00:15:20.178Z,0.7
2023-10-26T00:18:22.177Z,1
2023-10-26T00:21:24.264Z,0.8
2023-10-26T00:24:26.329Z,1.1
2023-10-26T00:27:28.270Z,0.9
2023-10-26T00:30:30.207Z,0.9
2023-10-26T00:33:32.132Z,3.3
2023-10-26T00:36:34.116Z,1.9
2023-10-26T00:39:36.088Z,2.7
2023-10-26T00:42:38.043Z,1
2023-10-26T00:45:39.993Z,0.9
2023-10-26T00:48:42.347Z,1.1
2023-10-26T00:51:43.905Z,1.5
2023-10-26T00:54:45.932Z,1.7
2023-10-26T00:57:47.828Z,1.1
2023-10-26T01:00:49.852Z,1.8
2023-10-26T01:03:51.958Z,1.1
2023-10-26T01:06:53.758Z,1.2
2023-10-26T01:09:55.740Z,1.9
2023-10-26T01:12:57.769Z,1.8
2023-10-26T01:16:00.055Z,1.5
2023-10-26T01:19:01.797Z,1.3
2023-10-26T01:22:03.639Z,1.6
2023-10-26T01:25:05.575Z,1.9
2023-10-26T01:28:07.561Z,1.5
2023-10-26T01:31:09.515Z,2.8
2023-10-26T01:34:11.463Z,3.4
2023-10-26T01:37:13.419Z,2
2023-10-26T01:40:15.447Z,2.7
2023-10-26T01:43:17.365Z,2.1
2023-10-26T01:46:19.331Z,1.8
2023-10-26T01:49:21.288Z,2.8
2023-10-26T01:52:23.237Z,2.3
2023-10-26T01:55:25.264Z,2.5
2023-10-26T01:58:27.239Z,2.3
2023-10-26T02:01:29.165Z,2.8
2023-10-26T02:04:31.140Z,3.4
2023-10-26T02:07:33.100Z,2.7
2023-10-26T02:10:35.056Z,4.9
2023-10-26T02:13:37.092Z,3.2
2023-10-26T02:16:38.963Z,3.2
2023-10-26T02:19:40.951Z,3.3
2023-10-26T02:22:42.878Z,2.3
2023-10-26T02:25:44.823Z,2.9
2023-10-26T02:28:46.852Z,3.9
2023-10-26T02:31:48.789Z,3.4
2023-10-26T02:34:50.869Z,2.3
2023-10-26T02:37:52.719Z,3.4
2023-10-26T02:40:54.641Z,3.4
2023-10-26T02:43:56.629Z,2.9
2023-10-26T02:46:58.578Z,3.6
2023-10-26T02:50:00.529Z,3.5
2023-10-26T02:53:02.512Z,2.8
2023-10-26T02:56:04.486Z,4
2023-10-26T02:59:06.492Z,5.1
2023-10-26T03:02:08.394Z,4.1
2023-10-26T03:05:10.373Z,4.6
2023-10-26T03:08:12.327Z,5
2023-10-26T03:11:14.311Z,4.8
2023-10-26T03:14:16.260Z,5.3
2023-10-26T03:17:18.219Z,4.5
2023-10-26T03:20:20.211Z,6
2023-10-26T03:23:22.171Z,6
2023-10-26T03:26:24.167Z,5.3
2023-10-26T03:29:26.066Z,5.2
2023-10-26T03:32:27.985Z,4.9
2023-10-26T03:35:29.962Z,6.5
2023-10-26T03:38:32.120Z,5.6
2023-10-26T03:41:33.901Z,5.6
2023-10-26T03:44:35.814Z,5.3
2023-10-26T03:47:37.829Z,5.2
2023-10-26T03:50:39.737Z,4.8
2023-10-26T03:53:41.734Z,5.5
2023-10-26T03:56:43.647Z,4.5
2023-10-26T03:59:45.593Z,5.6
2023-10-26T04:02:47.599Z,4.6
2023-10-26T04:05:49.481Z,5.4
2023-10-26T04:08:51.444Z,5.3
2023-10-26T04:11:53.412Z,6
2023-10-26T04:14:55.485Z,5.5
2023-10-26T04:17:57.376Z,6.4
2023-10-26T04:20:59.368Z,6.7
2023-10-26T04:24:01.295Z,5.3
2023-10-26T04:27:03.297Z,7
2023-10-26T04:30:05.227Z,7.7
2023-10-26T04:33:07.341Z,6.7
2023-10-26T04:36:09.136Z,7.6
2023-10-26T04:39:11.310Z,7.2
2023-10-26T04:42:13.097Z,7
2023-10-26T04:45:15.035Z,6.8
2023-10-26T04:48:16.977Z,6.2
2023-10-26T04:51:18.961Z,5.8
2023-10-26T04:54:20.866Z,9.1
2023-10-26T04:57:22.844Z,4.6
2023-10-26T05:00:24.746Z,5.2
2023-10-26T05:03:26.686Z,6.1
2023-10-26T05:06:28.710Z,5
2023-10-26T05:09:30.671Z,6
2023-10-26T05:12:32.568Z,4.1
2023-10-26T05:15:34.591Z,5.3
2023-10-26T05:18:36.485Z,5.3
2023-10-26T05:21:38.447Z,6.7
2023-10-26T05:24:40.363Z,4.4
2023-10-26T05:27:42.329Z,5.3
2023-10-26T05:30:44.253Z,5.4
2023-10-26T05:33:46.238Z,4.3
2023-10-26T05:36:48.136Z,4.4
2023-10-26T05:39:50.119Z,4.7
2023-10-26T05:42:52.099Z,5.4
2023-10-26T05:45:54.097Z,4.2
2023-10-26T05:48:55.963Z,3.9
2023-10-26T05:51:57.964Z,4.5
2023-10-26T05:54:59.869Z,4.9
2023-10-26T05:58:01.831Z,4
2023-10-26T06:01:03.775Z,3.8
2023-10-26T06:04:05.807Z,4.2
2023-10-26T06:07:07.684Z,4.3
2023-10-26T06:10:09.720Z,3.4
2023-10-26T06:13:11.723Z,4.2
2023-10-26T06:16:13.655Z,4.2
2023-10-26T06:19:15.554Z,5.4
2023-10-26T06:22:17.510Z,2.8
2023-10-26T06:25:19.570Z,5.4
2023-10-26T06:28:21.411Z,3.2
2023-10-26T06:31:23.393Z,4.2
2023-10-26T06:34:25.657Z,5.2
2023-10-26T06:37:27.584Z,4.5
2023-10-26T06:40:29.572Z,3.1
2023-10-26T06:43:31.489Z,3.4
2023-10-26T06:46:33.494Z,2.6
2023-10-26T06:49:35.388Z,3.9
2023-10-26T06:52:37.336Z,3.3
2023-10-26T06:55:39.313Z,3
2023-10-26T06:58:41.406Z,3.1
2023-10-26T07:02:03.638Z,3.9
2023-10-26T07:04:45.335Z,3.4
2023-10-26T07:07:47.164Z,4
2023-10-26T07:10:49.248Z,5.6
2023-10-26T07:13:51.196Z,3.1
2023-10-26T07:16:53.142Z,3.1
2023-10-26T07:19:55.083Z,3.9
2023-10-26T07:22:57.056Z,4.2
2023-10-26T07:25:59.041Z,4.7
2023-10-26T07:29:00.943Z,3.4
2023-10-26T07:32:02.933Z,4.1
2023-10-26T07:35:04.860Z,2.6
2023-10-26T07:38:34.963Z,3.7
2023-10-26T07:41:08.756Z,3
2023-10-26T07:44:10.753Z,3.9
2023-10-26T07:47:12.649Z,3.7
2023-10-26T07:50:14.598Z,5
2023-10-26T07:53:16.573Z,3.9
2023-10-26T07:56:19.399Z,3.4
2023-10-26T07:59:20.449Z,2.7
2023-10-26T08:02:22.490Z,2.6
2023-10-26T08:05:24.378Z,2.1
2023-10-26T08:08:26.308Z,1.8
2023-10-26T08:11:28.241Z,3
2023-10-26T08:16:04.465Z,5.4
2023-10-26T08:17:32.262Z,2.8
2023-10-26T08:20:34.096Z,3.7
2023-10-26T08:23:36.117Z,2.4
2023-10-26T08:26:38.225Z,5.4
2023-10-26T08:29:40.260Z,3.8
2023-10-26T08:32:42.196Z,3.6
2023-10-26T08:35:44.069Z,4.6
2023-10-26T08:38:46.034Z,3.3
2023-10-26T08:41:47.978Z,2.6
2023-10-26T08:44:50.155Z,4.3
2023-10-26T08:47:52.130Z,2.7
2023-10-26T08:50:54.020Z,3.1
2023-10-26T08:53:57.770Z,2.5
2023-10-26T08:56:57.946Z,2.4
2023-10-26T08:59:59.860Z,3.1
2023-10-26T09:03:03.402Z,2
2023-10-26T09:06:03.925Z,2.3
2023-10-26T09:09:05.899Z,2.7
2023-10-26T09:12:07.791Z,2.1
2023-10-26T09:15:09.839Z,3.2
2023-10-26T09:18:11.831Z,2.5
2023-10-26T09:21:13.705Z,2.2
2023-10-26T09:24:15.648Z,1.7
2023-10-26T09:27:17.607Z,1.6
2023-10-26T09:30:19.569Z,1.8
2023-10-26T09:33:21.574Z,2.9
2023-10-26T09:36:23.480Z,3.3
2023-10-26T09:39:25.428Z,2.6
2023-10-26T09:42:27.415Z,2.6
2023-10-26T09:45:29.425Z,2
2023-10-26T09:48:31.442Z,2.8
2023-10-26T09:51:33.298Z,1.8
2023-10-26T09:54:35.322Z,3.3
2023-10-26T09:57:37.323Z,3
2023-10-26T10:00:39.265Z,1.8
2023-10-26T10:03:41.241Z,1.9
2023-10-26T10:06:43.224Z,1.6
2023-10-26T10:09:45.203Z,2.1
2023-10-26T10:12:47.106Z,2.3
2023-10-26T10:15:49.078Z,1.8
2023-10-26T10:18:51.048Z,1.8
2023-10-26T10:21:53.589Z,1.6
2023-10-26T10:24:55.095Z,2.5
2023-10-26T10:27:56.883Z,1.4
2023-10-26T10:30:58.892Z,2.5
2023-10-26T10:34:00.889Z,1.4
2023-10-26T10:37:02.823Z,1.3
2023-10-26T10:40:04.725Z,3.7
2023-10-26T10:43:06.685Z,1.3
2023-10-26T10:46:08.637Z,1.6
2023-10-26T10:49:10.512Z,1.6
2023-10-26T10:52:12.480Z,1.8
2023-10-26T10:55:14.510Z,1.1
2023-10-26T10:58:16.583Z,2.2
2023-10-26T11:01:18.392Z,1.7
2023-10-26T11:04:20.356Z,1.8
2023-10-26T11:07:23.299Z,0.8
2023-10-26T11:10:24.246Z,2.1
2023-10-26T11:13:26.200Z,2.1
2023-10-26T11:16:28.218Z,1
2023-10-26T11:19:30.182Z,1.1
2023-10-26T11:22:33.555Z,1.6
2023-10-26T11:25:34.060Z,1.1
2023-10-26T11:28:35.999Z,1.6
2023-10-26T11:31:37.995Z,1.3
2023-10-26T11:34:39.880Z,1.2
2023-10-26T11:37:41.898Z,3.1
2023-10-26T11:40:43.867Z,1.5
2023-10-26T11:43:45.811Z,1.4
2023-10-26T11:46:47.839Z,2.9
2023-10-26T11:49:49.706Z,1.5
2023-10-26T11:52:51.671Z,1.4
2023-10-26T11:55:53.621Z,1.8
2023-10-26T11:58:55.549Z,1.4
2023-10-26T12:01:57.732Z,1
2023-10-26T12:04:59.692Z,1.3
2023-10-26T12:08:01.673Z,1.5
2023-10-26T12:11:03.553Z,3.4
2023-10-26T12:14:05.521Z,1.5
2023-10-26T12:17:07.498Z,2.4
2023-10-26T12:20:09.512Z,1.5
2023-10-26T12:23:11.388Z,3
2023-10-26T12:26:13.345Z,3.1
2023-10-26T12:29:15.305Z,1.6
2023-10-26T12:32:17.270Z,1.3
2023-10-26T12:35:19.257Z,3.3
2023-10-26T12:38:21.149Z,1.1
2023-10-26T12:41:23.134Z,1.5
2023-10-26T12:44:25.100Z,1.4
2023-10-26T12:47:27.094Z,1.2
2023-10-26T12:50:29.012Z,3.6
2023-10-26T12:53:30.954Z,2.6
2023-10-26T12:56:32.911Z,1.3
2023-10-26T12:59:34.883Z,1.8
2023-10-26T13:02:36.900Z,2.5
2023-10-26T13:05:38.813Z,3.1
2023-10-26T13:08:40.774Z,2.8
2023-10-26T13:11:42.742Z,2.2
2023-10-26T13:14:44.781Z,2.6
2023-10-26T13:17:46.655Z,2.4
2023-10-26T13:20:48.597Z,1.5
2023-10-26T13:23:50.552Z,2.1
2023-10-26T13:26:52.483Z,1.7
2023-10-26T13:29:54.460Z,1.9
2023-10-26T13:32:56.404Z,1.3
2023-10-26T13:35:58.385Z,1.9
2023-10-26T13:39:00.299Z,2.3
2023-10-26T13:42:02.235Z,1.9
2023-10-26T13:45:04.196Z,1.5
2023-10-26T13:48:06.178Z,3
2023-10-26T13:51:08.183Z,1.9
2023-10-26T13:54:10.035Z,2.2
2023-10-26T13:57:12.009Z,3.4
2023-10-26T14:00:13.941Z,2.1
2023-10-26T14:03:15.880Z,3.3
2023-10-26T14:06:17.829Z,1.6
2023-10-26T14:09:19.806Z,2
2023-10-26T14:12:21.807Z,1.6
2023-10-26T14:15:23.717Z,1.5
2023-10-26T14:18:25.662Z,2.6
2023-10-26T14:21:27.683Z,3.6
2023-10-26T14:24:29.574Z,2
2023-10-26T14:27:31.621Z,4.1
2023-10-26T14:30:33.485Z,2
2023-10-26T14:33:35.445Z,1.8
2023-10-26T14:36:37.507Z,2.2
2023-10-26T14:39:39.464Z,2.2
2023-10-26T14:42:41.387Z,1.9
2023-10-26T14:45:43.321Z,2.7
2023-10-26T14:48:45.283Z,4.4
2023-10-26T14:51:47.274Z,4.7
2023-10-26T14:54:49.172Z,2.7
2023-10-26T14:57:51.147Z,2.7
2023-10-26T15:00:53.128Z,4.5
2023-10-26T15:03:56.727Z,5.3
2023-10-26T15:06:57.070Z,3.7
2023-10-26T15:10:21.625Z,3
2023-10-26T15:13:00.912Z,3.1
2023-10-26T15:16:02.869Z,4.2
2023-10-26T15:19:04.858Z,3.5
2023-10-26T15:22:06.740Z,4.7
2023-10-26T15:25:08.730Z,4.5
2023-10-26T15:28:10.689Z,3.4
2023-10-26T15:31:12.598Z,6.1
2023-10-26T15:34:14.581Z,5.9
2023-10-26T15:37:16.556Z,8.6
2023-10-26T15:40:18.435Z,8.6
2023-10-26T15:43:20.373Z,6.1
2023-10-26T15:46:22.387Z,5
2023-10-26T15:49:34.434Z,6.2
2023-10-26T15:52:26.244Z,4.3
2023-10-26T15:55:28.185Z,6.1
2023-10-26T15:58:30.144Z,5.8
2023-10-26T16:01:32.174Z,3.8
2023-10-26T16:04:34.040Z,6
2023-10-26T16:07:36.021Z,8.2
2023-10-26T16:10:38.121Z,8.7
2023-10-26T16:13:39.908Z,8.2
2023-10-26T16:16:42.175Z,6.5
2023-10-26T16:19:43.796Z,6.6
2023-10-26T16:22:45.823Z,8.6
2023-10-26T16:25:47.741Z,7.9
2023-10-26T16:28:50.756Z,7.9
2023-10-26T16:31:51.682Z,7.8
2023-10-26T16:34:53.665Z,9.7
2023-10-26T16:37:55.555Z,9.3
2023-10-26T16:40:57.499Z,9.8
2023-10-26T16:43:59.491Z,12.5
2023-10-26T16:47:01.434Z,11.1
2023-10-26T16:50:03.389Z,9.1
2023-10-26T16:53:10.400Z,10.6
2023-10-26T16:56:07.335Z,8.8
2023-10-26T16:59:09.275Z,10.8
2023-10-26T17:02:11.183Z,10.4
2023-10-26T17:05:13.203Z,12.4
2023-10-26T17:08:15.190Z,11.4
2023-10-26T17:11:17.104Z,13.8
2023-10-26T17:14:19.089Z,12
2023-10-26T17:17:21.028Z,9.9
2023-10-26T17:20:22.999Z,11.6
2023-10-26T17:23:24.999Z,10.6
2023-10-26T17:26:26.992Z,12.5
2023-10-26T17:29:28.905Z,13.3
2023-10-26T17:32:30.926Z,14.2
2023-10-26T17:35:32.804Z,8.3
2023-10-26T17:38:34.784Z,9.5
2023-10-26T17:41:39.567Z,10
2023-10-26T17:44:41.485Z,10.2
2023-10-26T17:47:43.525Z,9.8
2023-10-26T17:50:45.390Z,11.7
2023-10-26T17:53:47.337Z,11.2
2023-10-26T17:56:49.322Z,12.3
2023-10-26T17:59:51.291Z,13.3
2023-10-26T18:02:56.134Z,12.1
2023-10-26T18:05:58.048Z,16.3
2023-10-26T18:09:01.020Z,14.4
2023-10-26T18:12:02.953Z,15.4
2023-10-26T18:15:04.877Z,16.9
2023-10-26T18:18:06.898Z,15.8
2023-10-26T18:21:08.824Z,16.9
2023-10-26T18:24:10.758Z,15.5
2023-10-26T18:27:12.683Z,16.2
2023-10-26T18:30:14.722Z,14.3
2023-10-26T18:33:16.686Z,15.2
2023-10-26T18:36:18.673Z,15.5
2023-10-26T18:39:20.641Z,16.2
2023-10-26T18:42:22.809Z,16.8
2023-10-26T18:45:24.758Z,17.8
2023-10-26T18:48:26.921Z,17
2023-10-26T18:51:28.681Z,19.7
2023-10-26T18:54:30.640Z,19
2023-10-26T18:57:32.593Z,18.8
2023-10-26T19:00:34.539Z,17.5
2023-10-26T19:03:40.554Z,15.5
2023-10-26T19:06:38.442Z,19.2
2023-10-26T19:09:40.441Z,18.7
2023-10-26T19:12:42.402Z,17.3
2023-10-26T19:15:44.333Z,19.5
2023-10-26T19:18:46.315Z,20.7
2023-10-26T19:21:48.240Z,19.6
2023-10-26T19:24:50.192Z,19
2023-10-26T19:27:52.141Z,21.8
2023-10-26T19:30:54.076Z,22.1
2023-10-26T19:33:56.033Z,20.7
2023-10-26T19:36:58.001Z,19
2023-10-26T19:39:59.947Z,18.1
2023-10-26T19:43:01.904Z,18.3
2023-10-26T19:46:03.880Z,15.9
2023-10-26T19:49:05.803Z,19.5
2023-10-26T19:52:07.743Z,19.5
2023-10-26T19:55:09.705Z,19.9
2023-10-26T19:58:11.675Z,16.3
2023-10-26T20:01:13.735Z,20.8
2023-10-26T20:04:15.610Z,17.3
2023-10-26T20:07:17.511Z,17.3
2023-10-26T20:10:19.495Z,18.9
2023-10-26T20:13:21.411Z,22.7
2023-10-26T20:16:23.396Z,23.5
2023-10-26T20:19:25.288Z,18.8
2023-10-26T20:22:27.249Z,20
2023-10-26T20:25:29.247Z,17.6
2023-10-26T20:28:31.177Z,19.7
2023-10-26T20:31:35.813Z,16.8
2023-10-26T20:34:35.090Z,18.7
2023-10-26T20:37:37.135Z,19.4
2023-10-26T20:40:38.979Z,21
2023-10-26T20:43:41.023Z,22.8
2023-10-26T20:46:45.749Z,20.3
2023-10-26T20:49:47.683Z,18.9
2023-10-26T20:52:49.644Z,16.7
2023-10-26T20:55:51.601Z,17.1
2023-10-26T20:58:53.554Z,20.4
2023-10-26T21:01:55.532Z,21.3
2023-10-26T21:04:57.549Z,22.1
2023-10-26T21:07:59.484Z,22.6
2023-10-26T21:11:01.504Z,20.4
2023-10-26T21:14:03.428Z,23.8
2023-10-26T21:17:05.360Z,19.6
2023-10-26T21:20:07.388Z,19.9
2023-10-26T21:23:09.359Z,21
2023-10-26T21:26:11.313Z,20.3
2023-10-26T21:29:13.270Z,19.2
2023-10-26T21:32:15.244Z,21.1
2023-10-26T21:35:17.183Z,23.1
2023-10-26T21:38:19.166Z,23.9
2023-10-26T21:41:21.106Z,21.8
2023-10-26T21:44:23.427Z,22.6
2023-10-26T21:47:25.000Z,23.6
2023-10-26T21:50:26.952Z,20.1
2023-10-26T21:53:28.903Z,20.8
2023-10-26T21:56:30.855Z,23.3
2023-10-26T21:59:32.806Z,22
2023-10-26T22:02:34.768Z,21.4
2023-10-26T22:05:36.681Z,19.8
2023-10-26T22:08:38.680Z,22.8
2023-10-26T22:11:40.608Z,19.8
2023-10-26T22:14:42.532Z,18.1
2023-10-26T22:17:44.545Z,17.3
2023-10-26T22:20:46.438Z,16.3
2023-10-26T22:23:48.396Z,14.2
2023-10-26T22:26:50.365Z,17.7
2023-10-26T22:29:52.306Z,16.4
2023-10-26T22:32:54.302Z,17.4
2023-10-26T22:35:56.202Z,15.3
2023-10-26T22:38:58.153Z,17.6
2023-10-26T22:42:00.138Z,17.1
2023-10-26T22:45:02.061Z,20.2
2023-10-26T22:48:04.093Z,16.8
2023-10-26T22:51:05.951Z,17.4
2023-10-26T22:54:07.974Z,14.9
2023-10-26T22:57:09.913Z,15.9
2023-10-26T23:00:11.799Z,15.8
2023-10-26T23:03:13.750Z,18.8
2023-10-26T23:06:15.723Z,17.6
2023-10-26T23:09:17.707Z,15.7
2023-10-26T23:12:19.649Z,18
2023-10-26T23:15:21.597Z,14.8
2023-10-26T23:18:23.582Z,14.6
2023-10-26T23:21:25.509Z,18.1
2023-10-26T23:24:27.485Z,14.3
2023-10-26T23:27:29.388Z,13.1
2023-10-26T23:30:31.350Z,10
2023-10-26T23:33:33.282Z,12
2023-10-26T23:36:35.301Z,9.4
2023-10-26T23:39:37.309Z,10.6
2023-10-26T23:42:39.353Z,12.3
2023-10-26T23:45:41.154Z,9.4
2023-10-26T23:48:43.133Z,11
2023-10-26T23:51:45.077Z,12.5
2023-10-26T23:54:47.027Z,14.1
2023-10-26T23:57:49.094Z,8.9
